sensor_id;sensor_type;location;lat;lon;timestamp;P1;durP1;ratioP1;P2;durP2;ratioP2
27977;SDS011;15314;49.248;6.968;2023-06-10T00:00:43;12.63;;;11.55;;
27977;SDS011;15314;49.248;6.968;2023-06-10T00:01:44;11.77;;;10.75;;
27977;SDS011;15314;49.248;6.968;2023-06-10T00:02:47;12.50;;;11.38;;
27977;SDS011;15314;49.248;6.968;2023-06-10T00:03:47;12.25;;;11.02;;
27977;SDS011;15314;49.248;6.968;2023-06-10T00:04:49;11.48;;;10.60;;
27977;SDS011;15314;49.248;6.968;2023-06-10T00:05:50;12.23;;;11.32;;
27977;SDS011;15314;49.248;6.968;2023-06-10T00:06:51;11.88;;;10.90;;
27977;SDS011;15314;49.248;6.968;2023-06-10T00:07:53;11.73;;;10.90;;
27977;SDS011;15314;49.248;6.968;2023-06-10T00:08:55;12.45;;;11.60;;
27977;SDS011;15314;49.248;6.968;2023-06-10T00:09:55;11.75;;;10.80;;
27977;SDS011;15314;49.248;6.968;2023-06-10T00:10:57;11.65;;;10.85;;
27977;SDS011;15314;49.248;6.968;2023-06-10T00:11:58;11.95;;;11.13;;
27977;SDS011;15314;49.248;6.968;2023-06-10T00:13:01;12.35;;;11.25;;
27977;SDS011;15314;49.248;6.968;2023-06-10T00:14:03;11.30;;;10.40;;
27977;SDS011;15314;49.248;6.968;2023-06-10T00:15:05;11.98;;;11.02;;
27977;SDS011;15314;49.248;6.968;2023-06-10T00:16:06;12.43;;;11.40;;
27977;SDS011;15314;49.248;6.968;2023-06-10T00:17:06;11.65;;;10.65;;
27977;SDS011;15314;49.248;6.968;2023-06-10T00:18:10;12.82;;;11.73;;
27977;SDS011;15314;49.248;6.968;2023-06-10T00:19:12;12.15;;;11.32;;
27977;SDS011;15314;49.248;6.968;2023-06-10T00:20:16;12.55;;;11.65;;
27977;SDS011;15314;49.248;6.968;2023-06-10T00:21:17;12.02;;;11.10;;
27977;SDS011;15314;49.248;6.968;2023-06-10T00:22:19;13.05;;;11.90;;
27977;SDS011;15314;49.248;6.968;2023-06-10T00:23:19;13.32;;;12.15;;
27977;SDS011;15314;49.248;6.968;2023-06-10T00:24:20;12.70;;;11.70;;
27977;SDS011;15314;49.248;6.968;2023-06-10T00:25:22;13.65;;;12.48;;
27977;SDS011;15314;49.248;6.968;2023-06-10T00:26:23;12.15;;;11.35;;
27977;SDS011;15314;49.248;6.968;2023-06-10T00:27:24;12.80;;;11.73;;
27977;SDS011;15314;49.248;6.968;2023-06-10T00:28:26;13.55;;;12.23;;
27977;SDS011;15314;49.248;6.968;2023-06-10T00:29:27;12.75;;;11.82;;
27977;SDS011;15314;49.248;6.968;2023-06-10T00:30:27;13.40;;;12.27;;
27977;SDS011;15314;49.248;6.968;2023-06-10T00:31:28;12.68;;;11.48;;
27977;SDS011;15314;49.248;6.968;2023-06-10T00:32:30;12.93;;;11.77;;
27977;SDS011;15314;49.248;6.968;2023-06-10T00:33:31;11.95;;;11.15;;
27977;SDS011;15314;49.248;6.968;2023-06-10T00:34:31;12.77;;;11.68;;
27977;SDS011;15314;49.248;6.968;2023-06-10T00:35:32;14.00;;;11.68;;
27977;SDS011;15314;49.248;6.968;2023-06-10T00:36:33;13.25;;;12.15;;
27977;SDS011;15314;49.248;6.968;2023-06-10T00:37:33;12.98;;;11.73;;
27977;SDS011;15314;49.248;6.968;2023-06-10T00:38:35;13.00;;;11.90;;
27977;SDS011;15314;49.248;6.968;2023-06-10T00:39:36;13.77;;;12.57;;
27977;SDS011;15314;49.248;6.968;2023-06-10T00:40:40;13.02;;;12.02;;
27977;SDS011;15314;49.248;6.968;2023-06-10T00:41:41;13.85;;;12.48;;
27977;SDS011;15314;49.248;6.968;2023-06-10T00:42:41;12.85;;;11.85;;
27977;SDS011;15314;49.248;6.968;2023-06-10T00:43:42;12.43;;;11.57;;
27977;SDS011;15314;49.248;6.968;2023-06-10T00:44:43;13.30;;;12.07;;
27977;SDS011;15314;49.248;6.968;2023-06-10T00:45:43;13.00;;;12.10;;
27977;SDS011;15314;49.248;6.968;2023-06-10T00:46:45;13.30;;;12.15;;
27977;SDS011;15314;49.248;6.968;2023-06-10T00:47:45;13.23;;;12.07;;
27977;SDS011;15314;49.248;6.968;2023-06-10T00:48:46;13.25;;;11.98;;
27977;SDS011;15314;49.248;6.968;2023-06-10T00:49:47;13.48;;;12.30;;
27977;SDS011;15314;49.248;6.968;2023-06-10T00:50:49;13.27;;;12.18;;
27977;SDS011;15314;49.248;6.968;2023-06-10T00:51:50;13.15;;;12.15;;
27977;SDS011;15314;49.248;6.968;2023-06-10T00:52:53;13.30;;;12.13;;
27977;SDS011;15314;49.248;6.968;2023-06-10T00:53:54;14.05;;;12.85;;
27977;SDS011;15314;49.248;6.968;2023-06-10T00:54:55;13.05;;;12.05;;
27977;SDS011;15314;49.248;6.968;2023-06-10T00:55:56;13.15;;;12.05;;
27977;SDS011;15314;49.248;6.968;2023-06-10T00:56:57;13.50;;;12.48;;
27977;SDS011;15314;49.248;6.968;2023-06-10T00:58:00;13.90;;;12.60;;
27977;SDS011;15314;49.248;6.968;2023-06-10T00:59:02;13.48;;;12.18;;
27977;SDS011;15314;49.248;6.968;2023-06-10T01:00:03;14.05;;;12.80;;
27977;SDS011;15314;49.248;6.968;2023-06-10T01:01:07;13.57;;;12.30;;
27977;SDS011;15314;49.248;6.968;2023-06-10T01:02:10;12.93;;;12.00;;
27977;SDS011;15314;49.248;6.968;2023-06-10T01:03:11;14.13;;;12.88;;
27977;SDS011;15314;49.248;6.968;2023-06-10T01:04:13;12.60;;;11.65;;
27977;SDS011;15314;49.248;6.968;2023-06-10T01:05:13;13.13;;;12.13;;
27977;SDS011;15314;49.248;6.968;2023-06-10T01:08:50;13.23;;;12.23;;
27977;SDS011;15314;49.248;6.968;2023-06-10T01:11:20;13.43;;;12.43;;
27977;SDS011;15314;49.248;6.968;2023-06-10T01:13:49;14.18;;;12.82;;
27977;SDS011;15314;49.248;6.968;2023-06-10T01:14:51;14.23;;;12.77;;
27977;SDS011;15314;49.248;6.968;2023-06-10T01:15:52;13.77;;;12.45;;
27977;SDS011;15314;49.248;6.968;2023-06-10T01:16:53;14.18;;;12.88;;
27977;SDS011;15314;49.248;6.968;2023-06-10T01:17:55;13.80;;;12.45;;
27977;SDS011;15314;49.248;6.968;2023-06-10T01:18:58;14.43;;;13.10;;
27977;SDS011;15314;49.248;6.968;2023-06-10T01:20:00;12.95;;;11.93;;
27977;SDS011;15314;49.248;6.968;2023-06-10T01:21:02;14.00;;;12.93;;
27977;SDS011;15314;49.248;6.968;2023-06-10T01:22:03;14.15;;;12.90;;
27977;SDS011;15314;49.248;6.968;2023-06-10T01:23:05;13.50;;;12.27;;
27977;SDS011;15314;49.248;6.968;2023-06-10T01:24:06;14.68;;;13.27;;
27977;SDS011;15314;49.248;6.968;2023-06-10T01:25:11;13.05;;;12.02;;
27977;SDS011;15314;49.248;6.968;2023-06-10T01:26:12;13.73;;;12.68;;
27977;SDS011;15314;49.248;6.968;2023-06-10T01:27:15;14.45;;;13.20;;
27977;SDS011;15314;49.248;6.968;2023-06-10T01:29:43;13.75;;;12.63;;
27977;SDS011;15314;49.248;6.968;2023-06-10T01:30:58;13.52;;;12.35;;
27977;SDS011;15314;49.248;6.968;2023-06-10T01:32:09;12.95;;;12.02;;
27977;SDS011;15314;49.248;6.968;2023-06-10T01:33:17;13.88;;;12.63;;
27977;SDS011;15314;49.248;6.968;2023-06-10T01:34:23;14.05;;;12.95;;
27977;SDS011;15314;49.248;6.968;2023-06-10T01:35:25;12.98;;;12.07;;
27977;SDS011;15314;49.248;6.968;2023-06-10T01:36:26;14.73;;;13.35;;
27977;SDS011;15314;49.248;6.968;2023-06-10T01:37:27;13.40;;;12.40;;
27977;SDS011;15314;49.248;6.968;2023-06-10T01:38:33;12.95;;;11.95;;
27977;SDS011;15314;49.248;6.968;2023-06-10T01:39:42;13.02;;;12.02;;
27977;SDS011;15314;49.248;6.968;2023-06-10T01:40:43;13.73;;;12.60;;
27977;SDS011;15314;49.248;6.968;2023-06-10T01:41:45;13.55;;;12.38;;
27977;SDS011;15314;49.248;6.968;2023-06-10T01:42:48;13.38;;;12.38;;
27977;SDS011;15314;49.248;6.968;2023-06-10T01:43:48;14.45;;;13.45;;
27977;SDS011;15314;49.248;6.968;2023-06-10T01:44:49;14.20;;;13.02;;
27977;SDS011;15314;49.248;6.968;2023-06-10T01:45:50;13.93;;;12.57;;
27977;SDS011;15314;49.248;6.968;2023-06-10T01:46:51;14.20;;;12.95;;
27977;SDS011;15314;49.248;6.968;2023-06-10T01:47:52;13.73;;;12.63;;
27977;SDS011;15314;49.248;6.968;2023-06-10T01:48:52;12.60;;;11.35;;
27977;SDS011;15314;49.248;6.968;2023-06-10T01:49:53;13.45;;;12.35;;
27977;SDS011;15314;49.248;6.968;2023-06-10T01:50:54;13.45;;;12.27;;
27977;SDS011;15314;49.248;6.968;2023-06-10T01:51:56;13.07;;;12.07;;
27977;SDS011;15314;49.248;6.968;2023-06-10T01:52:57;12.60;;;11.70;;
27977;SDS011;15314;49.248;6.968;2023-06-10T01:53:58;13.80;;;12.50;;
27977;SDS011;15314;49.248;6.968;2023-06-10T01:54:59;14.52;;;13.15;;
27977;SDS011;15314;49.248;6.968;2023-06-10T01:56:00;14.10;;;12.85;;
27977;SDS011;15314;49.248;6.968;2023-06-10T01:57:01;14.05;;;13.02;;
27977;SDS011;15314;49.248;6.968;2023-06-10T01:58:01;15.02;;;13.63;;
27977;SDS011;15314;49.248;6.968;2023-06-10T01:59:02;13.75;;;12.15;;
27977;SDS011;15314;49.248;6.968;2023-06-10T02:00:05;13.50;;;12.50;;
27977;SDS011;15314;49.248;6.968;2023-06-10T02:01:07;13.38;;;12.38;;
27977;SDS011;15314;49.248;6.968;2023-06-10T02:02:08;13.98;;;12.65;;
27977;SDS011;15314;49.248;6.968;2023-06-10T02:03:09;14.50;;;13.23;;
27977;SDS011;15314;49.248;6.968;2023-06-10T02:04:09;13.95;;;12.63;;
27977;SDS011;15314;49.248;6.968;2023-06-10T02:05:10;14.10;;;12.70;;
27977;SDS011;15314;49.248;6.968;2023-06-10T02:06:13;13.45;;;12.43;;
27977;SDS011;15314;49.248;6.968;2023-06-10T02:07:13;13.48;;;12.40;;
27977;SDS011;15314;49.248;6.968;2023-06-10T02:08:14;14.20;;;12.90;;
27977;SDS011;15314;49.248;6.968;2023-06-10T02:09:15;14.38;;;13.27;;
27977;SDS011;15314;49.248;6.968;2023-06-10T02:10:15;14.48;;;12.95;;
27977;SDS011;15314;49.248;6.968;2023-06-10T02:11:16;14.10;;;12.75;;
27977;SDS011;15314;49.248;6.968;2023-06-10T02:12:17;13.73;;;12.52;;
27977;SDS011;15314;49.248;6.968;2023-06-10T02:13:17;13.13;;;12.02;;
27977;SDS011;15314;49.248;6.968;2023-06-10T02:14:18;13.20;;;12.00;;
27977;SDS011;15314;49.248;6.968;2023-06-10T02:15:19;13.13;;;12.13;;
27977;SDS011;15314;49.248;6.968;2023-06-10T02:16:19;13.38;;;12.18;;
27977;SDS011;15314;49.248;6.968;2023-06-10T02:17:21;13.13;;;12.23;;
27977;SDS011;15314;49.248;6.968;2023-06-10T02:18:23;13.23;;;12.15;;
27977;SDS011;15314;49.248;6.968;2023-06-10T02:19:23;13.27;;;12.27;;
27977;SDS011;15314;49.248;6.968;2023-06-10T02:20:29;14.07;;;12.70;;
27977;SDS011;15314;49.248;6.968;2023-06-10T02:21:29;13.18;;;11.98;;
27977;SDS011;15314;49.248;6.968;2023-06-10T02:22:30;15.43;;;13.15;;
27977;SDS011;15314;49.248;6.968;2023-06-10T02:23:31;14.52;;;13.23;;
27977;SDS011;15314;49.248;6.968;2023-06-10T02:24:31;12.80;;;11.80;;
27977;SDS011;15314;49.248;6.968;2023-06-10T02:25:32;13.77;;;12.77;;
27977;SDS011;15314;49.248;6.968;2023-06-10T02:26:32;14.25;;;13.15;;
27977;SDS011;15314;49.248;6.968;2023-06-10T02:27:33;14.38;;;13.18;;
27977;SDS011;15314;49.248;6.968;2023-06-10T02:28:34;13.40;;;12.27;;
27977;SDS011;15314;49.248;6.968;2023-06-10T02:29:34;14.27;;;13.18;;
27977;SDS011;15314;49.248;6.968;2023-06-10T02:30:35;13.02;;;12.13;;
27977;SDS011;15314;49.248;6.968;2023-06-10T02:31:38;14.23;;;13.02;;
27977;SDS011;15314;49.248;6.968;2023-06-10T02:32:39;13.43;;;12.30;;
27977;SDS011;15314;49.248;6.968;2023-06-10T02:33:41;14.65;;;13.45;;
27977;SDS011;15314;49.248;6.968;2023-06-10T02:34:42;12.70;;;11.70;;
27977;SDS011;15314;49.248;6.968;2023-06-10T02:35:45;13.52;;;12.45;;
27977;SDS011;15314;49.248;6.968;2023-06-10T02:36:46;13.45;;;12.45;;
27977;SDS011;15314;49.248;6.968;2023-06-10T02:37:49;13.68;;;12.68;;
27977;SDS011;15314;49.248;6.968;2023-06-10T02:38:50;13.93;;;12.85;;
27977;SDS011;15314;49.248;6.968;2023-06-10T02:39:51;13.95;;;12.70;;
27977;SDS011;15314;49.248;6.968;2023-06-10T02:40:52;14.55;;;13.05;;
27977;SDS011;15314;49.248;6.968;2023-06-10T02:41:52;13.98;;;12.88;;
27977;SDS011;15314;49.248;6.968;2023-06-10T02:42:53;13.73;;;12.80;;
27977;SDS011;15314;49.248;6.968;2023-06-10T02:43:53;14.57;;;13.48;;
27977;SDS011;15314;49.248;6.968;2023-06-10T02:44:54;13.27;;;12.27;;
27977;SDS011;15314;49.248;6.968;2023-06-10T02:45:55;14.32;;;13.02;;
27977;SDS011;15314;49.248;6.968;2023-06-10T02:46:56;14.38;;;13.27;;
27977;SDS011;15314;49.248;6.968;2023-06-10T02:47:56;13.65;;;12.65;;
27977;SDS011;15314;49.248;6.968;2023-06-10T02:48:57;13.60;;;12.40;;
27977;SDS011;15314;49.248;6.968;2023-06-10T02:49:57;13.90;;;12.80;;
27977;SDS011;15314;49.248;6.968;2023-06-10T02:50:58;14.43;;;13.02;;
27977;SDS011;15314;49.248;6.968;2023-06-10T02:51:59;14.48;;;13.38;;
27977;SDS011;15314;49.248;6.968;2023-06-10T02:53:00;14.40;;;12.88;;
27977;SDS011;15314;49.248;6.968;2023-06-10T02:54:01;13.90;;;12.65;;
27977;SDS011;15314;49.248;6.968;2023-06-10T02:55:02;12.95;;;12.07;;
27977;SDS011;15314;49.248;6.968;2023-06-10T02:56:02;15.27;;;13.98;;
27977;SDS011;15314;49.248;6.968;2023-06-10T02:57:03;14.52;;;12.45;;
27977;SDS011;15314;49.248;6.968;2023-06-10T02:58:05;14.68;;;13.30;;
27977;SDS011;15314;49.248;6.968;2023-06-10T02:59:06;14.52;;;13.30;;
27977;SDS011;15314;49.248;6.968;2023-06-10T03:00:08;14.50;;;13.40;;
27977;SDS011;15314;49.248;6.968;2023-06-10T03:01:11;14.60;;;13.18;;
27977;SDS011;15314;49.248;6.968;2023-06-10T03:02:12;14.13;;;13.13;;
27977;SDS011;15314;49.248;6.968;2023-06-10T03:03:13;13.93;;;12.68;;
27977;SDS011;15314;49.248;6.968;2023-06-10T03:04:14;13.93;;;12.82;;
27977;SDS011;15314;49.248;6.968;2023-06-10T03:05:15;15.05;;;13.65;;
27977;SDS011;15314;49.248;6.968;2023-06-10T03:06:17;14.73;;;13.38;;
27977;SDS011;15314;49.248;6.968;2023-06-10T03:07:18;13.75;;;12.63;;
27977;SDS011;15314;49.248;6.968;2023-06-10T03:08:20;13.77;;;12.68;;
27977;SDS011;15314;49.248;6.968;2023-06-10T03:09:21;14.07;;;13.07;;
27977;SDS011;15314;49.248;6.968;2023-06-10T03:10:22;13.55;;;12.50;;
27977;SDS011;15314;49.248;6.968;2023-06-10T03:11:22;14.98;;;13.75;;
27977;SDS011;15314;49.248;6.968;2023-06-10T03:12:23;14.05;;;12.77;;
27977;SDS011;15314;49.248;6.968;2023-06-10T03:13:24;14.27;;;13.18;;
27977;SDS011;15314;49.248;6.968;2023-06-10T03:14:25;13.00;;;11.65;;
27977;SDS011;15314;49.248;6.968;2023-06-10T03:15:25;14.73;;;13.55;;
27977;SDS011;15314;49.248;6.968;2023-06-10T03:16:28;14.05;;;12.95;;
27977;SDS011;15314;49.248;6.968;2023-06-10T03:17:32;13.63;;;12.52;;
27977;SDS011;15314;49.248;6.968;2023-06-10T03:18:33;13.90;;;12.82;;
27977;SDS011;15314;49.248;6.968;2023-06-10T03:19:34;13.38;;;12.18;;
27977;SDS011;15314;49.248;6.968;2023-06-10T03:20:34;14.05;;;12.82;;
27977;SDS011;15314;49.248;6.968;2023-06-10T03:21:37;13.60;;;12.50;;
27977;SDS011;15314;49.248;6.968;2023-06-10T03:22:38;13.50;;;12.30;;
27977;SDS011;15314;49.248;6.968;2023-06-10T03:23:39;14.55;;;13.35;;
27977;SDS011;15314;49.248;6.968;2023-06-10T03:24:39;14.90;;;13.80;;
27977;SDS011;15314;49.248;6.968;2023-06-10T03:25:40;14.27;;;13.27;;
27977;SDS011;15314;49.248;6.968;2023-06-10T03:26:41;13.55;;;12.45;;
27977;SDS011;15314;49.248;6.968;2023-06-10T03:27:42;13.77;;;12.65;;
27977;SDS011;15314;49.248;6.968;2023-06-10T03:28:42;14.13;;;12.65;;
27977;SDS011;15314;49.248;6.968;2023-06-10T03:29:43;14.13;;;12.98;;
27977;SDS011;15314;49.248;6.968;2023-06-10T03:30:44;14.05;;;12.95;;
27977;SDS011;15314;49.248;6.968;2023-06-10T03:31:44;14.15;;;12.10;;
27977;SDS011;15314;49.248;6.968;2023-06-10T03:32:45;15.20;;;13.85;;
27977;SDS011;15314;49.248;6.968;2023-06-10T03:33:46;13.73;;;12.48;;
27977;SDS011;15314;49.248;6.968;2023-06-10T03:34:46;15.38;;;14.07;;
27977;SDS011;15314;49.248;6.968;2023-06-10T03:35:47;14.15;;;13.05;;
27977;SDS011;15314;49.248;6.968;2023-06-10T03:36:48;14.48;;;13.27;;
27977;SDS011;15314;49.248;6.968;2023-06-10T03:37:49;14.90;;;13.80;;
27977;SDS011;15314;49.248;6.968;2023-06-10T03:38:50;14.93;;;13.73;;
27977;SDS011;15314;49.248;6.968;2023-06-10T03:39:51;14.38;;;13.27;;
27977;SDS011;15314;49.248;6.968;2023-06-10T03:40:52;15.23;;;14.07;;
27977;SDS011;15314;49.248;6.968;2023-06-10T03:41:53;15.65;;;14.45;;
27977;SDS011;15314;49.248;6.968;2023-06-10T03:42:53;15.32;;;14.02;;
27977;SDS011;15314;49.248;6.968;2023-06-10T03:43:54;15.20;;;13.88;;
27977;SDS011;15314;49.248;6.968;2023-06-10T03:44:55;15.20;;;14.10;;
27977;SDS011;15314;49.248;6.968;2023-06-10T03:45:56;14.70;;;13.45;;
27977;SDS011;15314;49.248;6.968;2023-06-10T03:46:57;14.52;;;13.38;;
27977;SDS011;15314;49.248;6.968;2023-06-10T03:48:00;14.15;;;12.95;;
27977;SDS011;15314;49.248;6.968;2023-06-10T03:49:02;15.02;;;13.93;;
27977;SDS011;15314;49.248;6.968;2023-06-10T03:50:03;15.57;;;14.25;;
27977;SDS011;15314;49.248;6.968;2023-06-10T03:51:05;14.68;;;13.65;;
27977;SDS011;15314;49.248;6.968;2023-06-10T03:52:05;15.15;;;13.95;;
27977;SDS011;15314;49.248;6.968;2023-06-10T03:53:06;15.10;;;13.73;;
27977;SDS011;15314;49.248;6.968;2023-06-10T03:54:07;14.88;;;13.68;;
27977;SDS011;15314;49.248;6.968;2023-06-10T03:55:08;14.93;;;13.82;;
27977;SDS011;15314;49.248;6.968;2023-06-10T03:56:09;14.70;;;13.60;;
27977;SDS011;15314;49.248;6.968;2023-06-10T03:57:10;15.05;;;13.95;;
27977;SDS011;15314;49.248;6.968;2023-06-10T03:58:11;16.40;;;15.10;;
27977;SDS011;15314;49.248;6.968;2023-06-10T03:59:14;16.30;;;14.77;;
27977;SDS011;15314;49.248;6.968;2023-06-10T04:00:15;15.15;;;13.93;;
27977;SDS011;15314;49.248;6.968;2023-06-10T04:01:17;16.00;;;14.70;;
27977;SDS011;15314;49.248;6.968;2023-06-10T04:02:21;15.98;;;14.45;;
27977;SDS011;15314;49.248;6.968;2023-06-10T04:03:22;15.35;;;14.10;;
27977;SDS011;15314;49.248;6.968;2023-06-10T04:04:23;15.02;;;13.68;;
27977;SDS011;15314;49.248;6.968;2023-06-10T04:05:24;16.23;;;14.80;;
27977;SDS011;15314;49.248;6.968;2023-06-10T04:06:28;15.98;;;14.60;;
27977;SDS011;15314;49.248;6.968;2023-06-10T04:07:29;15.20;;;14.15;;
27977;SDS011;15314;49.248;6.968;2023-06-10T04:08:30;15.80;;;14.60;;
27977;SDS011;15314;49.248;6.968;2023-06-10T04:09:32;14.43;;;13.38;;
27977;SDS011;15314;49.248;6.968;2023-06-10T04:10:33;14.40;;;13.07;;
27977;SDS011;15314;49.248;6.968;2023-06-10T04:11:34;15.00;;;13.57;;
27977;SDS011;15314;49.248;6.968;2023-06-10T04:12:35;13.77;;;12.85;;
27977;SDS011;15314;49.248;6.968;2023-06-10T04:13:36;15.07;;;13.98;;
27977;SDS011;15314;49.248;6.968;2023-06-10T04:14:37;15.80;;;14.50;;
27977;SDS011;15314;49.248;6.968;2023-06-10T04:15:38;15.02;;;13.85;;
27977;SDS011;15314;49.248;6.968;2023-06-10T04:16:38;14.60;;;13.48;;
27977;SDS011;15314;49.248;6.968;2023-06-10T04:17:39;14.30;;;13.20;;
27977;SDS011;15314;49.248;6.968;2023-06-10T04:18:40;15.20;;;14.10;;
27977;SDS011;15314;49.248;6.968;2023-06-10T04:19:41;15.85;;;14.32;;
27977;SDS011;15314;49.248;6.968;2023-06-10T04:20:42;14.27;;;13.23;;
27977;SDS011;15314;49.248;6.968;2023-06-10T04:21:44;14.32;;;13.23;;
27977;SDS011;15314;49.248;6.968;2023-06-10T04:22:45;15.50;;;14.10;;
27977;SDS011;15314;49.248;6.968;2023-06-10T04:23:45;15.13;;;13.95;;
27977;SDS011;15314;49.248;6.968;2023-06-10T04:24:46;15.07;;;13.82;;
27977;SDS011;15314;49.248;6.968;2023-06-10T04:25:47;14.43;;;13.32;;
27977;SDS011;15314;49.248;6.968;2023-06-10T04:26:47;14.68;;;13.48;;
27977;SDS011;15314;49.248;6.968;2023-06-10T04:27:48;14.45;;;13.23;;
27977;SDS011;15314;49.248;6.968;2023-06-10T04:28:49;13.95;;;12.85;;
27977;SDS011;15314;49.248;6.968;2023-06-10T04:29:49;13.80;;;12.60;;
27977;SDS011;15314;49.248;6.968;2023-06-10T04:30:50;14.07;;;13.07;;
27977;SDS011;15314;49.248;6.968;2023-06-10T04:31:50;14.77;;;13.50;;
27977;SDS011;15314;49.248;6.968;2023-06-10T04:32:51;14.35;;;13.15;;
27977;SDS011;15314;49.248;6.968;2023-06-10T04:33:52;14.90;;;13.52;;
27977;SDS011;15314;49.248;6.968;2023-06-10T04:34:53;15.40;;;14.20;;
27977;SDS011;15314;49.248;6.968;2023-06-10T04:35:54;15.82;;;14.38;;
27977;SDS011;15314;49.248;6.968;2023-06-10T04:36:54;14.73;;;13.55;;
27977;SDS011;15314;49.248;6.968;2023-06-10T04:37:55;13.73;;;12.70;;
27977;SDS011;15314;49.248;6.968;2023-06-10T04:38:56;13.38;;;12.38;;
27977;SDS011;15314;49.248;6.968;2023-06-10T04:39:57;14.48;;;13.25;;
27977;SDS011;15314;49.248;6.968;2023-06-10T04:40:57;14.13;;;12.88;;
27977;SDS011;15314;49.248;6.968;2023-06-10T04:41:58;13.23;;;12.13;;
27977;SDS011;15314;49.248;6.968;2023-06-10T04:43:00;14.77;;;13.48;;
27977;SDS011;15314;49.248;6.968;2023-06-10T04:44:01;13.75;;;12.85;;
27977;SDS011;15314;49.248;6.968;2023-06-10T04:45:02;14.52;;;13.43;;
27977;SDS011;15314;49.248;6.968;2023-06-10T04:46:04;14.13;;;13.02;;
27977;SDS011;15314;49.248;6.968;2023-06-10T04:47:04;14.65;;;13.57;;
27977;SDS011;15314;49.248;6.968;2023-06-10T04:48:07;14.30;;;13.10;;
27977;SDS011;15314;49.248;6.968;2023-06-10T04:49:08;15.52;;;14.25;;
27977;SDS011;15314;49.248;6.968;2023-06-10T04:50:09;15.15;;;13.70;;
27977;SDS011;15314;49.248;6.968;2023-06-10T04:51:09;14.35;;;13.30;;
27977;SDS011;15314;49.248;6.968;2023-06-10T04:52:10;14.73;;;13.63;;
27977;SDS011;15314;49.248;6.968;2023-06-10T04:53:11;14.60;;;13.60;;
27977;SDS011;15314;49.248;6.968;2023-06-10T04:54:11;14.70;;;13.50;;
27977;SDS011;15314;49.248;6.968;2023-06-10T04:55:12;15.85;;;14.35;;
27977;SDS011;15314;49.248;6.968;2023-06-10T04:56:13;14.13;;;13.10;;
27977;SDS011;15314;49.248;6.968;2023-06-10T04:57:14;15.15;;;13.95;;
27977;SDS011;15314;49.248;6.968;2023-06-10T04:58:15;14.48;;;13.38;;
27977;SDS011;15314;49.248;6.968;2023-06-10T04:59:15;14.35;;;13.15;;
27977;SDS011;15314;49.248;6.968;2023-06-10T05:00:16;14.23;;;13.15;;
27977;SDS011;15314;49.248;6.968;2023-06-10T05:01:17;14.57;;;13.43;;
27977;SDS011;15314;49.248;6.968;2023-06-10T05:02:18;13.63;;;12.50;;
27977;SDS011;15314;49.248;6.968;2023-06-10T05:03:18;13.10;;;12.15;;
27977;SDS011;15314;49.248;6.968;2023-06-10T05:04:19;13.52;;;12.52;;
27977;SDS011;15314;49.248;6.968;2023-06-10T05:05:20;14.38;;;13.30;;
27977;SDS011;15314;49.248;6.968;2023-06-10T05:06:20;13.55;;;12.45;;
27977;SDS011;15314;49.248;6.968;2023-06-10T05:07:21;14.27;;;13.18;;
27977;SDS011;15314;49.248;6.968;2023-06-10T05:08:22;14.88;;;13.73;;
27977;SDS011;15314;49.248;6.968;2023-06-10T05:09:22;15.52;;;14.02;;
27977;SDS011;15314;49.248;6.968;2023-06-10T05:10:23;13.65;;;12.65;;
27977;SDS011;15314;49.248;6.968;2023-06-10T05:11:24;12.82;;;11.77;;
27977;SDS011;15314;49.248;6.968;2023-06-10T05:12:25;14.75;;;13.38;;
27977;SDS011;15314;49.248;6.968;2023-06-10T05:13:26;13.55;;;12.45;;
27977;SDS011;15314;49.248;6.968;2023-06-10T05:14:26;13.35;;;12.43;;
27977;SDS011;15314;49.248;6.968;2023-06-10T05:15:27;13.35;;;12.15;;
27977;SDS011;15314;49.248;6.968;2023-06-10T05:16:28;13.15;;;12.25;;
27977;SDS011;15314;49.248;6.968;2023-06-10T05:17:29;13.80;;;12.57;;
27977;SDS011;15314;49.248;6.968;2023-06-10T05:18:29;13.93;;;12.77;;
27977;SDS011;15314;49.248;6.968;2023-06-10T05:19:31;14.65;;;13.40;;
27977;SDS011;15314;49.248;6.968;2023-06-10T05:20:32;13.27;;;12.07;;
27977;SDS011;15314;49.248;6.968;2023-06-10T05:21:33;12.77;;;11.88;;
27977;SDS011;15314;49.248;6.968;2023-06-10T05:22:33;13.80;;;12.68;;
27977;SDS011;15314;49.248;6.968;2023-06-10T05:23:34;13.38;;;12.40;;
27977;SDS011;15314;49.248;6.968;2023-06-10T05:24:35;13.88;;;12.88;;
27977;SDS011;15314;49.248;6.968;2023-06-10T05:25:35;13.80;;;12.80;;
27977;SDS011;15314;49.248;6.968;2023-06-10T05:26:36;15.73;;;13.88;;
27977;SDS011;15314;49.248;6.968;2023-06-10T05:27:41;13.63;;;12.63;;
27977;SDS011;15314;49.248;6.968;2023-06-10T05:28:42;13.60;;;12.60;;
27977;SDS011;15314;49.248;6.968;2023-06-10T05:29:43;14.05;;;13.05;;
27977;SDS011;15314;49.248;6.968;2023-06-10T05:30:45;13.65;;;12.63;;
27977;SDS011;15314;49.248;6.968;2023-06-10T05:31:46;14.05;;;12.88;;
27977;SDS011;15314;49.248;6.968;2023-06-10T05:32:46;14.13;;;12.82;;
27977;SDS011;15314;49.248;6.968;2023-06-10T05:33:48;12.77;;;11.75;;
27977;SDS011;15314;49.248;6.968;2023-06-10T05:34:48;13.45;;;12.45;;
27977;SDS011;15314;49.248;6.968;2023-06-10T05:35:49;13.82;;;12.50;;
27977;SDS011;15314;49.248;6.968;2023-06-10T05:36:50;13.57;;;12.45;;
27977;SDS011;15314;49.248;6.968;2023-06-10T05:37:50;15.40;;;12.85;;
27977;SDS011;15314;49.248;6.968;2023-06-10T05:38:51;13.52;;;12.50;;
27977;SDS011;15314;49.248;6.968;2023-06-10T05:39:52;13.10;;;12.15;;
27977;SDS011;15314;49.248;6.968;2023-06-10T05:40:52;14.50;;;13.43;;
27977;SDS011;15314;49.248;6.968;2023-06-10T05:41:53;13.45;;;12.52;;
27977;SDS011;15314;49.248;6.968;2023-06-10T05:42:54;13.93;;;12.85;;
27977;SDS011;15314;49.248;6.968;2023-06-10T05:43:54;13.20;;;12.10;;
27977;SDS011;15314;49.248;6.968;2023-06-10T05:44:55;13.30;;;12.40;;
27977;SDS011;15314;49.248;6.968;2023-06-10T05:45:55;14.00;;;13.00;;
27977;SDS011;15314;49.248;6.968;2023-06-10T05:46:56;14.25;;;13.02;;
27977;SDS011;15314;49.248;6.968;2023-06-10T05:47:57;13.55;;;12.43;;
27977;SDS011;15314;49.248;6.968;2023-06-10T05:48:57;14.18;;;13.07;;
27977;SDS011;15314;49.248;6.968;2023-06-10T05:49:58;13.57;;;12.57;;
27977;SDS011;15314;49.248;6.968;2023-06-10T05:50:59;15.38;;;13.80;;
27977;SDS011;15314;49.248;6.968;2023-06-10T05:51:59;14.45;;;13.30;;
27977;SDS011;15314;49.248;6.968;2023-06-10T05:53:00;13.85;;;12.70;;
27977;SDS011;15314;49.248;6.968;2023-06-10T05:54:01;13.32;;;12.13;;
27977;SDS011;15314;49.248;6.968;2023-06-10T05:55:04;14.60;;;13.45;;
27977;SDS011;15314;49.248;6.968;2023-06-10T05:56:05;13.60;;;12.65;;
27977;SDS011;15314;49.248;6.968;2023-06-10T05:57:06;14.48;;;13.10;;
27977;SDS011;15314;49.248;6.968;2023-06-10T05:58:07;13.52;;;12.25;;
27977;SDS011;15314;49.248;6.968;2023-06-10T05:59:07;13.30;;;12.40;;
27977;SDS011;15314;49.248;6.968;2023-06-10T06:00:08;14.55;;;13.48;;
27977;SDS011;15314;49.248;6.968;2023-06-10T06:01:09;14.80;;;13.55;;
27977;SDS011;15314;49.248;6.968;2023-06-10T06:02:10;14.82;;;13.57;;
27977;SDS011;15314;49.248;6.968;2023-06-10T06:03:11;14.43;;;13.43;;
27977;SDS011;15314;49.248;6.968;2023-06-10T06:04:12;13.70;;;12.70;;
27977;SDS011;15314;49.248;6.968;2023-06-10T06:05:13;15.77;;;14.48;;